Time;durP1;ratioP1;P1;durP2;ratioP2;P2;SDS_P1;SDS_P2;PMS_P1;PMS_P2;Temp;Humidity;BMP_temperature;BMP_pressure;BME280_temperature;BME280_humidity;BME280_pressure;Samples;Min_cycle;Max_cycle;Signal;HPM_P1;HPM_P2
2021/07/18 00:02:04;;;;;;;11.38;3.70;;;;;;;18.59;74.55;102071.63;10097215;28;20047;-68
2021/07/18 00:07:02;;;;;;;11.23;3.10;;;;;;;18.65;74.25;102078.53;10108610;28;20053;-69
2021/07/18 00:11:59;;;;;;;8.43;2.83;;;;;;;18.67;74.08;102067.94;10107424;28;20461;-70
2021/07/18 00:16:56;;;;;;;8.35;3.03;;;;;;;18.61;74.46;102058.25;10113681;28;20051;-68
2021/07/18 00:21:53;;;;;;;6.32;2.72;;;;;;;18.56;74.48;102071.47;10105856;28;20125;-67
2021/07/18 00:26:49;;;;;;;10.32;3.22;;;;;;;18.48;75.14;102070.41;10110539;28;20046;-69
2021/07/18 00:31:46;;;;;;;6.75;2.30;;;;;;;18.48;75.33;102070.41;10117321;28;20047;-67
2021/07/18 00:36:42;;;;;;;8.60;2.42;;;;;;;18.43;75.34;102067.84;10106821;28;20114;-69
2021/07/18 00:41:39;;;;;;;10.15;2.28;;;;;;;18.44;75.45;102070.25;10102565;28;20146;-68
2021/07/18 00:46:36;;;;;;;6.00;2.65;;;;;;;18.27;75.91;102076.75;10111255;28;20047;-67
2021/07/18 00:51:33;;;;;;;8.82;2.80;;;;;;;18.34;75.91;102069.88;10107189;28;20055;-68
2021/07/18 00:56:29;;;;;;;9.93;2.88;;;;;;;18.34;76.10;102069.88;10112207;28;20167;-70
2021/07/18 01:01:27;;;;;;;7.30;2.65;;;;;;;18.24;76.34;102066.38;10113972;28;20086;-67
2021/07/18 01:06:24;;;;;;;7.25;2.75;;;;;;;18.33;75.85;102073.78;10116777;28;20117;-67
2021/07/18 01:11:21;;;;;;;11.75;3.20;;;;;;;18.28;75.87;102070.06;10112425;28;20062;-67
2021/07/18 01:16:17;;;;;;;12.52;3.05;;;;;;;18.20;76.12;102059.88;10111144;28;20505;-66
2021/07/18 01:21:14;;;;;;;7.05;2.65;;;;;;;18.17;76.22;102068.88;10110279;28;20043;-68
2021/07/18 01:26:11;;;;;;;9.50;2.42;;;;;;;18.13;76.54;102070.69;10108880;28;20113;-67
2021/07/18 01:31:07;;;;;;;6.93;2.97;;;;;;;18.09;76.71;102066.97;10100513;28;20050;-67
2021/07/18 01:36:04;;;;;;;8.77;2.88;;;;;;;18.08;76.57;102062.59;10107181;28;20046;-67
2021/07/18 01:41:00;;;;;;;6.80;2.40;;;;;;;18.08;76.74;102068.91;10106808;28;20077;-69
2021/07/18 01:45:57;;;;;;;13.35;2.58;;;;;;;18.07;76.63;102061.75;10116783;28;20093;-68
2021/07/18 01:50:54;;;;;;;8.38;3.05;;;;;;;18.04;76.64;102069.94;10103016;28;20054;-67
2021/07/18 01:55:54;;;;;;;8.07;3.20;;;;;;;18.03;76.88;102065.53;10110949;28;20042;-66
2021/07/18 02:00:51;;;;;;;8.95;2.95;;;;;;;17.90;77.28;102061.06;10102491;28;20047;-67
2021/07/18 02:05:47;;;;;;;10.95;2.92;;;;;;;17.79;78.34;102066.94;10113566;28;20059;-70
2021/07/18 02:10:44;;;;;;;9.77;3.83;;;;;;;17.70;78.65;102068.94;10110209;28;20126;-69
2021/07/18 02:15:40;;;;;;;7.60;3.22;;;;;;;17.82;78.28;102060.78;10118358;28;20081;-69
2021/07/18 02:20:37;;;;;;;6.63;3.05;;;;;;;17.78;78.37;102065.34;10097891;28;20047;-67
2021/07/18 02:25:34;;;;;;;10.38;3.05;;;;;;;17.79;78.64;102066.13;10111314;28;20047;-72
2021/07/18 02:30:30;;;;;;;8.65;3.53;;;;;;;17.75;78.91;102059.66;10107148;28;20536;-67
2021/07/18 02:35:27;;;;;;;12.80;3.80;;;;;;;17.67;79.26;102055.78;10108050;28;20133;-67
2021/07/18 02:40:24;;;;;;;9.73;3.42;;;;;;;17.70;79.17;102046.81;10103929;28;20066;-67
2021/07/18 02:45:24;;;;;;;10.23;3.40;;;;;;;17.72;79.15;102049.25;10110328;28;20051;-71
2021/07/18 02:50:24;;;;;;;11.90;3.85;;;;;;;17.69;79.40;102047.97;10109597;28;20099;-68
2021/07/18 02:55:21;;;;;;;9.43;3.72;;;;;;;17.66;79.65;102041.16;10116307;28;20126;-69
2021/07/18 03:00:20;;;;;;;6.47;3.10;;;;;;;17.49;80.78;102037.66;10106216;28;20090;-67
2021/07/18 03:05:17;;;;;;;7.53;3.38;;;;;;;17.59;80.24;102037.28;10106155;28;20070;-69
2021/07/18 03:10:16;;;;;;;7.82;3.92;;;;;;;17.59;80.35;102045.56;10098238;28;20047;-68
2021/07/18 03:15:14;;;;;;;14.32;3.83;;;;;;;17.54;80.68;102037.47;10108668;28;20544;-67
2021/07/18 03:20:13;;;;;;;9.10;3.38;;;;;;;17.51;80.94;102044.47;10100679;28;20070;-67
2021/07/18 03:25:11;;;;;;;9.40;3.28;;;;;;;17.54;81.40;102043.00;10108638;28;20074;-66
2021/07/18 03:30:10;;;;;;;14.15;3.60;;;;;;;17.59;81.03;102034.50;10113214;28;20074;-67
2021/07/18 03:35:07;;;;;;;7.43;2.90;;;;;;;17.65;80.78;102028.47;10106327;28;20147;-68
2021/07/18 03:40:06;;;;;;;9.25;3.90;;;;;;;17.60;81.03;102030.63;10098936;28;20484;-67
2021/07/18 03:45:05;;;;;;;12.73;3.53;;;;;;;17.63;80.67;102029.94;10106522;28;20105;-68
2021/07/18 03:50:03;;;;;;;11.90;3.50;;;;;;;17.64;80.64;102031.59;10105327;28;20047;-68
2021/07/18 03:55:00;;;;;;;9.52;3.65;;;;;;;17.61;80.88;102035.00;10116239;28;20062;-70
2021/07/18 03:59:56;;;;;;;8.18;3.05;;;;;;;17.53;81.40;102038.63;10107698;28;20767;-67
2021/07/18 04:04:53;;;;;;;11.88;3.72;;;;;;;17.36;81.98;102042.25;10108368;28;20070;-67
2021/07/18 04:09:49;;;;;;;6.95;3.38;;;;;;;17.50;82.07;102047.56;10095325;28;20112;-70
2021/07/18 04:14:46;;;;;;;10.90;4.60;;;;;;;17.59;81.83;102046.41;10107096;28;20122;-68
2021/07/18 04:19:42;;;;;;;12.18;3.80;;;;;;;17.63;81.43;102046.53;10086127;28;20075;-67
2021/07/18 04:24:38;;;;;;;7.50;3.70;;;;;;;17.58;81.66;102049.50;10107911;28;20440;-67
2021/07/18 04:29:35;;;;;;;12.05;3.90;;;;;;;17.74;81.22;102053.31;10104937;28;20047;-67
2021/07/18 04:34:31;;;;;;;7.93;3.28;;;;;;;17.69;81.29;102044.41;10102483;28;20043;-67
2021/07/18 04:39:28;;;;;;;10.15;2.97;;;;;;;17.72;81.28;102043.72;10103195;28;20504;-68
2021/07/18 04:44:24;;;;;;;9.02;4.25;;;;;;;17.78;81.04;102048.75;10096479;28;20051;-70
2021/07/18 04:49:24;;;;;;;9.40;3.25;;;;;;;17.80;80.96;102046.44;10109011;28;20081;-70
2021/07/18 04:54:21;;;;;;;7.70;3.17;;;;;;;17.86;81.04;102039.59;10110613;28;20458;-69
2021/07/18 04:59:19;;;;;;;10.63;2.95;;;;;;;17.86;80.67;102039.59;10103949;28;20501;-67
2021/07/18 05:04:15;;;;;;;7.53;2.67;;;;;;;17.84;81.09;102039.09;10115752;28;20137;-67
2021/07/18 05:09:12;;;;;;;9.65;2.78;;;;;;;17.92;80.85;102031.91;10112983;28;20047;-67
2021/07/18 05:14:08;;;;;;;8.82;2.55;;;;;;;17.92;81.31;102031.13;10105957;28;20106;-67
2021/07/18 05:19:05;;;;;;;5.85;2.28;;;;;;;18.02;80.81;102030.72;10111808;28;20137;-68
2021/07/18 05:24:01;;;;;;;8.80;3.25;;;;;;;18.03;80.92;102037.84;10111135;28;20727;-67
2021/07/18 05:28:57;;;;;;;6.43;3.00;;;;;;;18.04;80.76;102033.94;10112348;28;20081;-71
2021/07/18 05:33:54;;;;;;;9.07;3.47;;;;;;;17.99;81.23;102036.94;10104713;28;20106;-68
2021/07/18 05:38:50;;;;;;;7.45;2.78;;;;;;;18.09;80.95;102044.81;10112370;28;20398;-69
2021/07/18 05:43:47;;;;;;;7.20;2.72;;;;;;;18.21;80.57;102038.53;10103046;28;20093;-68
2021/07/18 05:48:43;;;;;;;6.78;2.72;;;;;;;18.29;80.59;102044.00;10088878;28;20050;-69
2021/07/18 05:53:40;;;;;;;8.10;3.22;;;;;;;18.41;79.80;102048.00;10106328;28;20082;-69
2021/07/18 05:58:36;;;;;;;6.82;2.75;;;;;;;18.48;79.87;102042.72;10110424;28;20046;-67
2021/07/18 06:03:33;;;;;;;14.75;3.30;;;;;;;18.48;78.54;102048.25;10100054;28;20122;-66
2021/07/18 06:08:29;;;;;;;8.07;3.50;;;;;;;18.54;78.68;102051.59;10113522;28;20107;-68
2021/07/18 06:13:26;;;;;;;7.20;3.33;;;;;;;18.59;77.72;102060.53;10105662;28;20479;-67
2021/07/18 06:18:22;;;;;;;9.20;3.33;;;;;;;18.62;77.42;102059.03;10101831;28;20170;-68
2021/07/18 06:23:19;;;;;;;9.35;3.22;;;;;;;18.69;77.32;102060.09;10109737;28;20066;-67
2021/07/18 06:28:29;;;;;;;9.40;2.70;;;;;;;18.77;76.51;102065.94;10106329;28;20094;-67
2021/07/18 06:33:26;;;;;;;8.50;2.30;;;;;;;18.84;76.41;102063.41;10108048;28;20085;-67
2021/07/18 06:38:22;;;;;;;9.10;2.47;;;;;;;18.93;76.53;102055.81;10102471;28;20051;-71
2021/07/18 06:43:19;;;;;;;8.30;2.70;;;;;;;19.03;75.51;102060.94;10111072;28;20477;-69
2021/07/18 06:48:15;;;;;;;8.35;2.83;;;;;;;19.04;74.79;102070.06;10109093;28;20572;-69
2021/07/18 06:53:11;;;;;;;9.40;2.45;;;;;;;19.09;74.47;102067.84;10111036;28;20085;-67
2021/07/18 06:58:08;;;;;;;6.20;1.90;;;;;;;19.14;75.02;102075.94;10111869;28;20050;-68
2021/07/18 07:03:04;;;;;;;8.05;2.53;;;;;;;19.23;74.24;102067.53;10106184;28;20109;-67
2021/07/18 07:08:02;;;;;;;8.95;2.10;;;;;;;19.34;73.49;102062.38;10112619;28;20849;-68
2021/07/18 07:12:59;;;;;;;6.47;1.88;;;;;;;19.43;72.68;102059.50;10104062;28;20035;-68
2021/07/18 07:17:57;;;;;;;8.27;1.85;;;;;;;19.50;72.61;102060.53;10105324;28;20039;-71
2021/07/18 07:22:54;;;;;;;6.22;1.95;;;;;;;19.60;71.81;102070.34;10100552;28;20469;-69
2021/07/18 07:27:50;;;;;;;8.07;2.15;;;;;;;19.60;70.79;102070.34;10110634;28;20416;-67
2021/07/18 07:32:47;;;;;;;8.68;2.08;;;;;;;19.73;70.40;102068.41;10103062;28;20047;-69
2021/07/18 07:37:44;;;;;;;10.30;2.60;;;;;;;19.89;69.84;102066.56;10106781;28;20710;-69
2021/07/18 07:42:41;;;;;;;7.88;1.73;;;;;;;19.97;69.29;102068.38;10103092;28;20102;-69
2021/07/18 07:47:38;;;;;;;5.68;1.63;;;;;;;20.11;68.70;102073.56;10105654;28;20078;-68
2021/07/18 07:52:35;;;;;;;8.30;1.85;;;;;;;20.22;68.28;102068.34;10102271;28;20038;-68
2021/07/18 07:57:33;;;;;;;6.68;1.50;;;;;;;20.32;67.72;102065.06;10111799;28;20042;-67
2021/07/18 08:02:30;;;;;;;7.50;1.90;;;;;;;20.41;68.01;102072.44;10097666;28;20055;-68
2021/07/18 08:07:26;;;;;;;6.30;1.67;;;;;;;20.51;67.50;102069.16;10109568;28;20097;-67
2021/07/18 08:12:23;;;;;;;8.13;1.90;;;;;;;20.68;66.97;102057.78;10100582;28;20062;-69
2021/07/18 08:17:20;;;;;;;7.38;1.98;;;;;;;20.90;66.36;102063.91;10102820;28;20047;-68
2021/07/18 08:22:16;;;;;;;8.15;1.92;;;;;;;21.10;65.94;102068.44;10105033;28;20585;-67
2021/07/18 08:27:13;;;;;;;3.22;1.20;;;;;;;21.20;63.61;102065.13;10101794;28;20043;-67
2021/07/18 08:32:09;;;;;;;10.23;3.00;;;;;;;21.40;64.15;102077.19;10107627;28;20122;-69
2021/07/18 08:37:06;;;;;;;6.80;1.92;;;;;;;21.39;64.82;102080.28;10106257;28;20166;-68
2021/07/18 08:42:02;;;;;;;10.20;2.00;;;;;;;21.46;63.90;102072.13;10110739;28;20085;-68
2021/07/18 08:47:00;;;;;;;7.47;1.80;;;;;;;21.41;63.41;102072.41;10109103;28;20133;-71
2021/07/18 08:51:57;;;;;;;5.53;1.73;;;;;;;21.40;63.75;102070.81;10107284;28;20046;-67
2021/07/18 08:56:59;;;;;;;6.35;1.90;;;;;;;21.65;64.07;102068.63;10107247;28;20535;-70
2021/07/18 09:01:56;;;;;;;6.45;1.92;;;;;;;21.89;62.23;102059.25;10110199;28;20145;-67
2021/07/18 09:06:54;;;;;;;6.75;1.90;;;;;;;21.98;62.22;102068.22;10108885;28;20105;-69
2021/07/18 09:12:08;;;;;;;5.30;1.73;;;;;;;22.02;61.64;102057.97;10111245;28;20047;-68
2021/07/18 09:17:09;;;;;;;8.10;2.22;;;;;;;22.26;60.57;102051.34;10106841;28;20133;-69
2021/07/18 09:22:09;;;;;;;6.15;1.70;;;;;;;22.43;60.53;102050.09;10106841;28;20062;-68
2021/07/18 09:27:29;;;;;;;4.80;1.40;;;;;;;22.21;59.49;102054.41;10114215;28;20047;-68
2021/07/18 09:32:28;;;;;;;5.57;1.55;;;;;;;22.51;60.23;102044.66;10094291;28;20501;-68
2021/07/18 09:37:30;;;;;;;3.60;1.55;;;;;;;22.40;59.32;102038.88;10114095;28;20074;-68
2021/07/18 09:42:52;;;;;;;5.70;1.95;;;;;;;22.72;59.57;102045.09;10102353;28;20099;-68
2021/07/18 09:47:49;;;;;;;6.88;1.83;;;;;;;22.89;59.00;102043.81;10101122;28;20153;-68
2021/07/18 09:52:48;;;;;;;10.32;2.00;;;;;;;23.19;57.63;102055.13;10110651;28;20075;-71
2021/07/18 09:57:45;;;;;;;6.38;1.70;;;;;;;22.94;57.64;102048.25;10104374;28;20157;-68
2021/07/18 10:02:41;;;;;;;7.20;1.95;;;;;;;23.04;57.14;102039.31;10115079;28;20082;-72
2021/07/18 10:07:39;;;;;;;5.50;1.80;;;;;;;23.46;56.84;102032.81;10109378;28;20457;-69
2021/07/18 10:12:35;;;;;;;10.25;2.22;;;;;;;23.34;56.75;102035.81;10104751;28;20441;-67
2021/07/18 10:17:32;;;;;;;5.65;1.58;;;;;;;23.36;57.16;102033.47;10114249;28;20089;-69
2021/07/18 10:22:29;;;;;;;5.47;1.40;;;;;;;24.12;55.36;102037.00;10110488;28;20577;-71
2021/07/18 10:27:25;;;;;;;5.15;1.13;;;;;;;25.03;52.50;102033.22;10108112;28;20172;-70
2021/07/18 10:32:24;;;;;;;7.25;1.85;;;;;;;24.15;53.12;102033.44;10100375;28;20058;-68
2021/07/18 10:37:21;;;;;;;6.35;1.50;;;;;;;25.19;51.31;102019.81;10109592;28;20141;-71
2021/07/18 10:42:32;;;;;;;3.75;1.38;;;;;;;25.90;48.48;102018.69;10103250;28;20085;-68
2021/07/18 10:48:00;;;;;;;4.55;1.27;;;;;;;25.82;49.56;102018.63;10104043;28;20528;-68
2021/07/18 10:53:15;;;;;;;6.85;1.48;;;;;;;25.97;46.66;102018.72;10105723;28;20113;-68
2021/07/18 10:58:32;;;;;;;7.10;1.15;;;;;;;26.93;46.55;102001.41;10080953;28;20070;-68
2021/07/18 11:03:36;;;;;;;6.80;1.40;;;;;;;27.10;43.56;102004.63;10106612;28;20401;-67
2021/07/18 11:09:05;;;;;;;4.30;1.17;;;;;;;27.45;44.24;102010.22;10097363;28;20517;-67
2021/07/18 11:14:24;;;;;;;4.80;1.10;;;;;;;26.93;45.35;102001.41;10104027;28;20042;-69
2021/07/18 11:19:38;;;;;;;6.43;1.60;;;;;;;27.22;44.11;101995.81;10103408;28;20101;-68
2021/07/18 11:24:56;;;;;;;4.95;1.15;;;;;;;26.13;46.25;101987.56;10082315;28;20081;-69
2021/07/18 11:29:54;;;;;;;4.35;1.10;;;;;;;25.88;47.71;101981.84;10107301;28;20564;-69
2021/07/18 11:34:51;;;;;;;6.07;1.50;;;;;;;25.71;47.73;101986.94;10107193;28;20043;-69
2021/07/18 11:39:47;;;;;;;8.38;1.67;;;;;;;25.36;48.40;101979.94;10105125;28;20082;-69
2021/07/18 11:44:46;;;;;;;5.05;1.42;;;;;;;25.36;48.47;101973.53;10107241;28;20101;-68
2021/07/18 11:49:46;;;;;;;6.20;1.90;;;;;;;24.94;49.09;101978.38;10086126;28;20071;-71
2021/07/18 11:54:44;;;;;;;2.35;0.90;;;;;;;25.48;47.59;101970.41;10113592;28;20520;-68
2021/07/18 11:59:43;;;;;;;4.25;0.82;;;;;;;25.52;47.23;101964.84;10091853;28;20512;-68
2021/07/18 12:04:41;;;;;;;4.05;1.05;;;;;;;25.46;46.09;101960.78;10103983;28;20078;-67
2021/07/18 12:09:42;;;;;;;5.80;1.30;;;;;;;25.57;46.18;101961.66;10106877;28;20081;-69
2021/07/18 12:14:40;;;;;;;7.20;1.13;;;;;;;25.11;46.68;101940.56;10116481;28;20083;-67
2021/07/18 12:19:37;;;;;;;5.45;1.30;;;;;;;24.77;46.96;101953.88;10114626;28;21588;-72
2021/07/18 12:24:37;;;;;;;5.25;1.20;;;;;;;25.25;47.13;101928.69;10115296;28;20043;-70
2021/07/18 12:29:56;;;;;;;3.13;0.80;;;;;;;25.64;46.39;101932.91;10108457;28;20055;-70
2021/07/18 12:34:54;;;;;;;4.22;0.82;;;;;;;25.64;45.15;101928.09;10112468;28;20122;-68
2021/07/18 12:39:56;;;;;;;4.28;1.10;;;;;;;25.40;45.56;101935.19;10106992;28;20137;-67
2021/07/18 12:44:55;;;;;;;6.43;1.30;;;;;;;25.17;44.46;101927.81;10109096;28;20043;-67
2021/07/18 12:50:33;;;;;;;4.82;1.02;;;;;;;24.89;46.51;101928.41;10106281;28;20464;-70
2021/07/18 12:55:34;;;;;;;3.88;0.98;;;;;;;24.78;47.56;101933.09;10091490;28;20050;-69
2021/07/18 13:00:31;;;;;;;4.68;1.25;;;;;;;24.84;47.64;101925.97;10104200;28;20158;-68
2021/07/18 13:05:30;;;;;;;3.85;1.10;;;;;;;24.98;48.83;101912.09;10109484;28;20073;-69
2021/07/18 13:10:35;;;;;;;8.07;1.52;;;;;;;24.89;48.77;101916.41;10110153;28;20477;-68
2021/07/18 13:15:32;;;;;;;3.80;1.55;;;;;;;24.79;49.41;101920.75;10109137;28;20482;-71
2021/07/18 13:20:32;;;;;;;5.57;1.35;;;;;;;24.68;50.13;101923.44;10106252;28;20089;-69
2021/07/18 13:25:31;;;;;;;5.47;1.48;;;;;;;24.41;50.89;101917.16;10106536;28;20051;-67
2021/07/18 13:35:42;;;;;;;4.63;1.73;;;;;;;24.52;52.24;101915.28;10337901;27;20637;-68
2021/07/18 13:40:42;;;;;;;7.95;1.38;;;;;;;24.49;52.54;101913.28;10315126;28;20071;-68
2021/07/18 13:45:49;;;;;;;6.93;1.33;;;;;;;24.26;53.07;101912.63;10299860;28;20053;-68
2021/07/18 13:50:46;;;;;;;3.33;0.90;;;;;;;24.71;52.39;101913.47;10298764;28;20114;-68
2021/07/18 13:55:44;;;;;;;3.60;1.45;;;;;;;24.50;53.17;101912.06;10314726;28;20530;-70
2021/07/18 14:00:41;;;;;;;5.88;1.50;;;;;;;24.48;52.82;101908.84;10309646;28;20123;-69
2021/07/18 14:05:38;;;;;;;5.22;1.80;;;;;;;24.70;53.15;101911.88;10315623;28;20045;-71
2021/07/18 14:10:44;;;;;;;5.80;1.63;;;;;;;24.63;53.10;101903.41;10303179;28;20102;-67
2021/07/18 14:15:43;;;;;;;6.70;1.48;;;;;;;24.79;51.61;101909.56;10308498;28;20037;-68
2021/07/18 14:20:39;;;;;;;5.38;1.58;;;;;;;24.69;51.63;101896.25;10310481;28;20045;-68
2021/07/18 14:25:36;;;;;;;4.57;1.58;;;;;;;25.02;51.02;101897.31;10314174;28;20040;-68
2021/07/18 14:30:34;;;;;;;6.75;1.83;;;;;;;24.72;51.10;101906.69;10314229;28;20495;-69
2021/07/18 14:35:31;;;;;;;6.88;1.85;;;;;;;25.03;51.49;101894.13;10297696;28;20049;-68
2021/07/18 14:40:28;;;;;;;5.35;1.52;;;;;;;24.99;51.85;101888.53;10305892;28;20546;-69
2021/07/18 14:45:25;;;;;;;3.75;1.98;;;;;;;24.76;51.51;101885.13;10289217;28;20057;-70
2021/07/18 14:50:21;;;;;;;4.30;1.90;;;;;;;24.70;52.27;101881.09;10280318;28;20206;-69
2021/07/18 14:55:19;;;;;;;8.25;2.10;;;;;;;25.02;51.31;101891.72;10289242;28;20048;-69
2021/07/18 15:00:18;;;;;;;6.18;1.85;;;;;;;24.81;51.24;101882.00;10279455;28;20044;-67
2021/07/18 15:05:15;;;;;;;4.88;1.45;;;;;;;24.87;50.93;101886.03;10283791;28;20052;-69
2021/07/18 15:10:14;;;;;;;4.68;1.50;;;;;;;24.85;49.74;101877.22;10276122;28;20384;-67
2021/07/18 15:15:15;;;;;;;7.32;2.60;;;;;;;24.92;48.89;101888.44;10285741;28;20135;-68
2021/07/18 15:20:16;;;;;;;4.13;1.38;;;;;;;24.88;47.16;101893.25;10278731;28;20080;-68
2021/07/18 15:25:13;;;;;;;8.43;2.33;;;;;;;24.83;48.29;101876.78;10282501;28;20140;-68
2021/07/18 15:30:11;;;;;;;5.07;2.20;;;;;;;24.40;50.77;101884.00;10278327;28;20110;-68
2021/07/18 15:35:08;;;;;;;4.97;1.85;;;;;;;24.07;51.42;101878.09;10274624;28;20064;-69
2021/07/18 15:40:07;;;;;;;5.72;2.05;;;;;;;24.50;50.76;101878.53;10275642;28;20053;-69
2021/07/18 15:45:09;;;;;;;7.88;2.38;;;;;;;24.62;50.39;101873.84;10276664;28;20052;-70
2021/07/18 15:50:07;;;;;;;7.13;2.60;;;;;;;24.78;50.83;101875.16;10275697;28;20052;-71
2021/07/18 15:55:06;;;;;;;5.95;2.20;;;;;;;24.83;50.27;101871.19;10283360;28;20083;-69
2021/07/18 16:00:07;;;;;;;3.55;1.50;;;;;;;24.87;49.99;101880.44;10271759;28;20098;-72
2021/07/18 16:05:11;;;;;;;4.65;1.55;;;;;;;25.18;48.81;101867.06;10280670;28;20091;-71
2021/07/18 16:10:10;;;;;;;8.80;1.77;;;;;;;24.53;50.46;101872.19;10276985;28;20502;-70
2021/07/18 16:15:09;;;;;;;6.10;2.30;;;;;;;24.39;51.41;101894.38;10286001;28;20045;-69
2021/07/18 16:20:06;;;;;;;8.80;3.85;;;;;;;23.78;53.21;101887.34;10274106;28;20045;-71
2021/07/18 16:25:04;;;;;;;6.40;2.38;;;;;;;23.36;54.19;101885.56;10278247;28;20071;-69
2021/07/18 16:30:01;;;;;;;5.80;2.90;;;;;;;23.23;54.52;101880.22;10282095;28;20084;-68
2021/07/18 16:34:57;;;;;;;9.30;3.63;;;;;;;23.05;54.74;101890.31;10280914;28;20060;-70
2021/07/18 16:39:58;;;;;;;7.53;2.75;;;;;;;22.79;54.60;101894.66;10289611;28;20106;-68
2021/07/18 16:44:55;;;;;;;7.30;3.00;;;;;;;22.64;54.86;101890.03;10280055;28;20066;-69
2021/07/18 16:49:55;;;;;;;10.52;3.38;;;;;;;22.56;55.15;101894.69;10259428;28;20076;-68
2021/07/18 16:54:53;;;;;;;8.48;3.28;;;;;;;22.36;56.00;101893.91;10265494;28;20049;-67
2021/07/18 16:59:50;;;;;;;7.95;3.75;;;;;;;22.20;56.79;101898.75;10278362;28;20442;-70
2021/07/18 17:04:47;;;;;;;12.25;5.00;;;;;;;22.26;56.46;101900.09;10271006;28;20079;-68
2021/07/18 17:09:43;;;;;;;9.18;3.83;;;;;;;22.02;56.79;101902.03;10278502;28;20069;-70
2021/07/18 17:14:40;;;;;;;10.70;4.05;;;;;;;21.77;57.64;101903.47;10280759;28;20474;-68
2021/07/18 17:19:36;;;;;;;7.75;3.53;;;;;;;21.81;57.19;101910.72;10282243;28;20590;-69
2021/07/18 17:24:35;;;;;;;11.85;4.43;;;;;;;21.91;56.86;101906.56;10283107;28;20130;-70
2021/07/18 17:29:32;;;;;;;7.38;3.63;;;;;;;21.77;56.99;101917.38;10275315;28;20465;-67
2021/07/18 17:34:28;;;;;;;9.95;4.47;;;;;;;21.49;57.77;101918.41;10273679;28;20495;-68
2021/07/18 17:39:25;;;;;;;11.35;4.40;;;;;;;21.43;57.83;101909.53;10275635;28;20522;-70
2021/07/18 17:44:23;;;;;;;11.57;4.65;;;;;;;21.15;59.04;101912.44;10276157;28;20044;-67
2021/07/18 17:49:19;;;;;;;11.02;4.47;;;;;;;21.15;58.35;101909.66;10271759;28;20465;-71
2021/07/18 17:54:16;;;;;;;11.35;5.68;;;;;;;20.97;58.82;101908.41;10277246;28;20111;-70
2021/07/18 17:59:15;;;;;;;9.98;4.57;;;;;;;20.98;57.66;101910.84;10275704;28;20076;-68
2021/07/18 18:04:11;;;;;;;13.10;4.82;;;;;;;20.79;58.02;101919.09;10273347;28;20511;-67
2021/07/18 18:09:08;;;;;;;12.60;5.13;;;;;;;20.85;57.67;101922.41;10259746;28;20044;-68
2021/07/18 18:14:06;;;;;;;9.38;4.22;;;;;;;20.87;57.84;101920.09;10290714;28;20040;-73
2021/07/18 18:19:05;;;;;;;10.45;4.80;;;;;;;20.81;56.78;101927.88;10275755;28;20052;-69
2021/07/18 18:24:02;;;;;;;11.35;5.32;;;;;;;20.64;56.85;101912.38;10291892;28;20045;-69
2021/07/18 18:28:58;;;;;;;12.05;5.82;;;;;;;20.54;57.00;101921.22;10279524;28;20135;-70
2021/07/18 18:33:56;;;;;;;11.50;6.22;;;;;;;20.36;57.33;101929.88;10286532;28;20037;-68
2021/07/18 18:38:52;;;;;;;11.55;6.63;;;;;;;20.29;57.79;101935.25;10290778;28;20106;-68
2021/07/18 18:43:49;;;;;;;13.98;7.43;;;;;;;20.12;57.38;101925.25;10260512;28;20068;-69
2021/07/18 18:48:46;;;;;;;14.65;7.85;;;;;;;20.03;56.85;101921.00;10265109;28;20077;-69
2021/07/18 18:53:42;;;;;;;13.52;6.53;;;;;;;19.89;57.17;101922.22;10285505;28;20514;-70
2021/07/18 18:58:39;;;;;;;13.90;7.38;;;;;;;19.75;57.58;101927.38;10281590;28;20459;-68
2021/07/18 19:03:35;;;;;;;13.25;6.20;;;;;;;19.60;57.11;101942.72;10269187;28;20147;-67
2021/07/18 19:08:32;;;;;;;12.20;6.03;;;;;;;19.40;57.63;101938.13;10278371;28;20076;-67
2021/07/18 19:13:29;;;;;;;9.02;4.88;;;;;;;19.43;57.72;101935.47;10275965;28;20041;-69
2021/07/18 19:18:25;;;;;;;10.98;4.50;;;;;;;19.35;56.42;101947.50;10279815;28;20099;-72
2021/07/18 19:23:22;;;;;;;10.65;4.53;;;;;;;19.13;56.57;101946.81;10279178;28;20132;-67
2021/07/18 19:28:18;;;;;;;11.48;4.43;;;;;;;19.14;56.05;101948.44;10285476;28;20558;-67
2021/07/18 19:33:15;;;;;;;11.95;4.55;;;;;;;18.94;56.86;101966.00;10279220;28;20064;-69
2021/07/18 19:38:11;;;;;;;14.15;4.85;;;;;;;18.91;57.05;101972.22;10269630;28;20114;-68
2021/07/18 19:43:08;;;;;;;10.48;3.78;;;;;;;18.90;57.24;101970.59;10281476;28;20075;-68
2021/07/18 19:48:04;;;;;;;17.67;4.35;;;;;;;18.68;57.76;101983.69;10277757;28;20064;-71
2021/07/18 19:53:01;;;;;;;12.75;3.92;;;;;;;18.66;57.64;101986.00;10255487;28;20045;-68
2021/07/18 19:57:57;;;;;;;15.93;3.90;;;;;;;18.74;57.12;101989.00;10279514;28;20109;-69
2021/07/18 20:02:54;;;;;;;12.43;3.47;;;;;;;18.38;56.82;101998.81;10269116;28;20079;-70
2021/07/18 20:07:51;;;;;;;14.70;3.47;;;;;;;18.30;57.09;101998.56;10276297;28;20163;-68
2021/07/18 20:12:48;;;;;;;15.82;5.82;;;;;;;18.36;56.96;102006.66;10286967;28;20037;-71
2021/07/18 20:17:44;;;;;;;14.80;4.25;;;;;;;18.27;56.56;101992.91;10271212;28;20475;-71
2021/07/18 20:22:42;;;;;;;13.93;4.22;;;;;;;18.04;57.84;101996.00;10277999;28;20069;-70
2021/07/18 20:27:39;;;;;;;17.85;4.90;;;;;;;18.05;57.67;101994.84;10278642;28;20079;-68
2021/07/18 20:32:36;;;;;;;13.68;3.85;;;;;;;18.09;57.29;101992.22;10277018;28;20111;-69
2021/07/18 20:37:32;;;;;;;13.13;3.22;;;;;;;18.08;57.28;101996.16;10278389;28;20083;-69
2021/07/18 20:42:29;;;;;;;16.20;4.15;;;;;;;17.98;57.32;101996.53;10270359;28;20120;-70
2021/07/18 20:47:27;;;;;;;16.67;3.58;;;;;;;17.68;58.01;101982.72;10284294;28;20052;-70
2021/07/18 20:52:24;;;;;;;11.45;3.25;;;;;;;17.79;57.23;101978.44;10274599;28;20468;-70
2021/07/18 20:57:20;;;;;;;14.25;3.47;;;;;;;17.69;56.77;101989.91;10280623;28;20122;-69
2021/07/18 21:02:17;;;;;;;13.43;4.22;;;;;;;17.66;56.81;101985.00;10255465;28;20466;-69
2021/07/18 21:07:14;;;;;;;19.30;4.68;;;;;;;17.43;56.92;101982.56;10281831;28;20139;-69
2021/07/18 21:12:10;;;;;;;11.40;3.25;;;;;;;17.28;57.42;101980.38;10281788;28;20048;-68
2021/07/18 21:17:08;;;;;;;15.43;4.28;;;;;;;17.30;57.52;101983.59;10282964;28;20071;-68
2021/07/18 21:22:04;;;;;;;17.15;4.40;;;;;;;17.29;57.54;101987.53;10278192;28;20059;-69
2021/07/18 21:27:01;;;;;;;19.50;5.25;;;;;;;17.29;57.24;101986.69;10286290;28;20510;-69
2021/07/18 21:31:58;;;;;;;18.35;4.38;;;;;;;17.28;57.94;101983.13;10282827;28;20049;-69
2021/07/18 21:36:54;;;;;;;18.85;4.30;;;;;;;17.19;58.43;101993.41;10273886;28;20041;-70
2021/07/18 21:41:51;;;;;;;14.13;3.92;;;;;;;17.09;58.35;101993.78;10259063;28;20053;-68
2021/07/18 21:46:47;;;;;;;17.92;4.20;;;;;;;17.09;58.21;101993.78;10268897;28;20045;-68
2021/07/18 21:51:44;;;;;;;15.70;3.60;;;;;;;16.95;58.36;101988.47;10270977;28;20103;-72
2021/07/18 21:56:40;;;;;;;14.82;3.22;;;;;;;16.99;58.49;101997.72;10269122;28;20102;-68
2021/07/18 22:01:37;;;;;;;15.88;3.95;;;;;;;16.87;58.73;101987.34;10274821;28;20111;-68
2021/07/18 22:06:33;;;;;;;11.15;3.25;;;;;;;16.75;59.10;101984.44;10279722;28;20045;-69
2021/07/18 22:11:30;;;;;;;17.60;4.18;;;;;;;16.69;59.35;101988.53;10279298;28;20049;-69
2021/07/18 22:16:26;;;;;;;15.32;3.13;;;;;;;16.69;59.07;101992.09;10282547;28;20127;-69
2021/07/18 22:21:23;;;;;;;20.55;3.67;;;;;;;16.63;59.23;102004.44;10284991;28;20123;-68
2021/07/18 22:26:20;;;;;;;17.10;3.40;;;;;;;16.55;59.81;102003.31;10298213;28;20518;-70
2021/07/18 22:31:17;;;;;;;15.65;3.55;;;;;;;16.54;59.74;102006.41;10277631;28;20041;-68
2021/07/18 22:36:13;;;;;;;14.25;3.50;;;;;;;16.52;60.05;102003.97;10275365;28;20050;-67
2021/07/18 22:41:30;;;;;;;17.98;4.32;;;;;;;16.50;59.77;101989.69;10278270;28;20045;-67
2021/07/18 22:46:26;;;;;;;15.60;3.53;;;;;;;16.42;60.07;101998.78;10275480;28;20052;-68
2021/07/18 22:51:23;;;;;;;20.88;4.35;;;;;;;16.42;59.95;101993.28;10275259;28;20507;-70